createdAt,value
2019-03-23T00:02:20.510Z,85.63
2019-03-23T00:04:49.032Z,85.81
2019-03-23T00:07:18.394Z,85.90
2019-03-23T00:09:46.889Z,85.97
2019-03-23T00:12:15.418Z,86.26
2019-03-23T00:14:43.848Z,86.18
2019-03-23T00:17:12.306Z,86.28
2019-03-23T00:19:40.819Z,86.47
2019-03-23T00:22:09.353Z,86.63
2019-03-23T00:24:37.822Z,86.91
2019-03-23T00:27:06.328Z,87.04
2019-03-23T00:29:34.802Z,87.23
2019-03-23T00:32:03.270Z,87.27
2019-03-23T00:34:31.776Z,87.37
2019-03-23T00:37:00.312Z,87.39
2019-03-23T00:39:28.784Z,87.59
2019-03-23T00:41:57.286Z,87.83
2019-03-23T00:44:25.760Z,88.05
2019-03-23T00:46:54.232Z,88.07
2019-03-23T00:49:22.768Z,88.10
2019-03-23T00:51:51.204Z,88.35
2019-03-23T00:54:19.679Z,88.64
2019-03-23T00:56:48.193Z,88.76
2019-03-23T00:59:16.666Z,89.00
2019-03-23T01:01:45.122Z,89.78
2019-03-23T01:04:13.628Z,90.19
2019-03-23T01:06:51.815Z,90.69
2019-03-23T01:09:12.475Z,91.06
2019-03-23T01:11:40.975Z,91.11
2019-03-23T01:14:09.445Z,91.25
2019-03-23T01:16:37.915Z,91.49
2019-03-23T01:19:06.416Z,91.49
2019-03-23T01:21:34.887Z,91.37
2019-03-23T01:24:03.358Z,91.41
2019-03-23T01:26:31.931Z,91.41
2019-03-23T01:29:00.403Z,91.35
2019-03-23T01:31:29.028Z,91.32
2019-03-23T01:33:57.534Z,91.18
2019-03-23T01:36:25.988Z,91.37
2019-03-23T01:38:54.461Z,91.40
2019-03-23T01:41:23.033Z,91.26
2019-03-23T01:43:51.496Z,91.25
2019-03-23T01:46:19.963Z,91.38
2019-03-23T01:48:48.467Z,91.48
2019-03-23T01:51:16.951Z,91.51
2019-03-23T01:53:45.561Z,91.52
2019-03-23T01:56:14.064Z,91.62
2019-03-23T01:58:42.545Z,91.61
2019-03-23T02:01:11.015Z,91.65
2019-03-23T02:03:39.493Z,91.71
2019-03-23T02:06:07.966Z,91.72
2019-03-23T02:08:36.437Z,91.67
2019-03-23T02:11:05.312Z,91.56
2019-03-23T02:13:33.781Z,91.45
2019-03-23T02:16:02.236Z,91.35
2019-03-23T02:18:30.747Z,91.36
2019-03-23T02:20:59.210Z,91.49
2019-03-23T02:23:27.676Z,91.48
2019-03-23T02:25:56.196Z,91.73
2019-03-23T02:28:24.649Z,91.73
2019-03-23T02:30:53.109Z,91.88
2019-03-23T02:33:21.800Z,91.93
2019-03-23T02:35:50.258Z,92.06
2019-03-23T02:38:18.747Z,92.02
2019-03-23T02:40:47.230Z,91.96
2019-03-23T02:43:15.686Z,91.86
2019-03-23T02:45:44.174Z,91.75
2019-03-23T02:48:12.754Z,91.69
2019-03-23T02:50:41.240Z,91.88
2019-03-23T02:53:09.705Z,92.31
2019-03-23T02:55:38.219Z,92.42
2019-03-23T02:58:06.688Z,92.39
2019-03-23T03:00:35.172Z,92.14
2019-03-23T03:03:03.679Z,91.95
2019-03-23T03:05:32.156Z,91.90
2019-03-23T03:08:00.688Z,91.94
2019-03-23T03:10:41.905Z,91.87
2019-03-23T03:13:10.749Z,91.71
2019-03-23T03:15:39.294Z,91.52
2019-03-23T03:18:08.078Z,91.41
2019-03-23T03:20:36.548Z,91.48
2019-03-23T03:23:05.012Z,91.44
2019-03-23T03:25:33.516Z,91.49
2019-03-23T03:28:02.000Z,91.56
2019-03-23T03:30:30.466Z,91.61
2019-03-23T03:32:58.959Z,91.71
2019-03-23T03:35:27.424Z,91.74
2019-03-23T03:37:57.261Z,91.74
2019-03-23T03:40:26.072Z,91.79
2019-03-23T03:42:54.542Z,91.86
2019-03-23T03:45:28.875Z,91.99
2019-03-23T03:47:57.497Z,92.07
2019-03-23T03:50:25.997Z,91.99
2019-03-23T03:52:54.445Z,91.89
2019-03-23T03:55:22.942Z,91.86
2019-03-23T03:57:51.403Z,91.86
2019-03-23T04:00:19.872Z,91.79
2019-03-23T04:02:48.370Z,91.86
2019-03-23T04:05:16.908Z,92.02
2019-03-23T04:07:45.733Z,92.09
2019-03-23T04:10:14.289Z,92.11
2019-03-23T04:12:42.746Z,92.28
2019-03-23T04:15:12.275Z,92.38
2019-03-23T04:17:40.772Z,92.47
2019-03-23T04:20:10.472Z,92.56
2019-03-23T04:22:38.942Z,92.48
2019-03-23T04:25:08.306Z,92.47
2019-03-23T04:27:36.744Z,92.35
2019-03-23T04:30:06.780Z,92.27
2019-03-23T04:32:35.267Z,92.18
2019-03-23T04:35:04.563Z,92.22
2019-03-23T04:37:33.027Z,92.12
2019-03-23T04:40:01.621Z,92.03
2019-03-23T04:42:30.068Z,91.90
2019-03-23T04:44:58.532Z,91.93
2019-03-23T04:47:27.028Z,91.84
2019-03-23T04:49:55.482Z,91.70
2019-03-23T04:52:23.958Z,91.65
2019-03-23T04:54:52.465Z,91.77
2019-03-23T04:57:20.951Z,91.77
2019-03-23T04:59:49.399Z,91.82
2019-03-23T05:02:17.914Z,91.71
2019-03-23T05:04:46.380Z,91.74
2019-03-23T05:07:14.828Z,91.70
2019-03-23T05:09:43.319Z,91.70
2019-03-23T05:12:11.777Z,91.70
2019-03-23T05:14:40.247Z,91.63
2019-03-23T05:17:09.800Z,91.58
2019-03-23T05:19:38.260Z,91.60
2019-03-23T05:22:06.740Z,91.60
2019-03-23T05:24:35.247Z,91.58
2019-03-23T05:27:03.706Z,91.64
2019-03-23T05:29:32.174Z,91.68
2019-03-23T05:32:00.675Z,91.75
2019-03-23T05:34:29.138Z,91.85
2019-03-23T05:36:57.608Z,91.82
2019-03-23T05:39:26.094Z,91.75
2019-03-23T05:41:54.558Z,91.71
2019-03-23T05:44:23.032Z,91.63
2019-03-23T05:46:51.531Z,91.69
2019-03-23T05:49:20.009Z,91.72
2019-03-23T05:51:48.473Z,91.75
2019-03-23T05:54:17.002Z,91.74
2019-03-23T05:56:45.483Z,91.71
2019-03-23T05:59:13.949Z,91.93
2019-03-23T06:01:42.438Z,91.76
2019-03-23T06:04:10.980Z,91.93
2019-03-23T06:06:39.465Z,92.01
2019-03-23T06:09:08.054Z,92.08
2019-03-23T06:11:36.519Z,92.31
2019-03-23T06:14:05.061Z,92.40
2019-03-23T06:16:33.596Z,92.26
2019-03-23T06:19:02.177Z,92.13
2019-03-23T06:21:30.649Z,92.04
2019-03-23T06:23:59.151Z,92.00
2019-03-23T06:26:27.616Z,92.04
2019-03-23T06:28:56.093Z,91.75
2019-03-23T06:31:24.598Z,91.48
2019-03-23T06:33:53.070Z,91.53
2019-03-23T06:36:21.533Z,91.35
2019-03-23T06:38:51.619Z,91.27
2019-03-23T06:41:20.081Z,91.11
2019-03-23T06:43:48.556Z,91.10
2019-03-23T06:46:17.304Z,90.94
2019-03-23T06:48:45.848Z,90.88
2019-03-23T06:51:14.288Z,90.70
2019-03-23T06:53:42.813Z,90.62
2019-03-23T06:56:11.287Z,90.52
2019-03-23T06:58:40.096Z,90.48
2019-03-23T07:01:08.591Z,90.26
2019-03-23T07:03:37.477Z,90.17
2019-03-23T07:06:06.016Z,90.08
2019-03-23T07:08:34.550Z,89.72
2019-03-23T07:11:03.021Z,89.70
2019-03-23T07:13:31.492Z,89.42
2019-03-23T07:15:59.997Z,89.26
2019-03-23T07:18:28.468Z,89.05
2019-03-23T07:20:57.942Z,89.18
2019-03-23T07:23:26.459Z,88.83
2019-03-23T07:25:54.941Z,88.63
2019-03-23T07:28:23.420Z,88.54
2019-03-23T07:30:51.944Z,88.65
2019-03-23T07:33:20.449Z,88.45
2019-03-23T07:35:49.166Z,88.19
2019-03-23T07:38:17.649Z,88.09
2019-03-23T07:40:46.130Z,87.84
2019-03-23T07:43:14.621Z,87.83
2019-03-23T07:45:43.136Z,88.01
2019-03-23T07:48:11.616Z,87.86
2019-03-23T07:50:40.090Z,87.90
2019-03-23T07:53:08.603Z,87.76
2019-03-23T07:55:37.080Z,87.59
2019-03-23T07:58:05.567Z,87.53
2019-03-23T08:00:34.060Z,87.64
2019-03-23T08:03:02.544Z,87.32
2019-03-23T08:05:31.095Z,87.26
2019-03-23T08:07:59.620Z,87.45
2019-03-23T08:10:29.733Z,87.29
2019-03-23T08:12:58.213Z,87.27
2019-03-23T08:15:26.802Z,86.98
2019-03-23T08:17:55.814Z,86.89
2019-03-23T08:20:25.154Z,86.76
2019-03-23T08:22:55.462Z,86.85
2019-03-23T08:25:23.938Z,86.97
2019-03-23T08:27:52.703Z,86.77
2019-03-23T08:30:21.261Z,86.54
2019-03-23T08:32:49.759Z,86.33
2019-03-23T08:35:18.301Z,86.50
2019-03-23T08:37:46.812Z,86.83
2019-03-23T08:40:15.299Z,86.82
2019-03-23T08:42:43.761Z,86.73
2019-03-23T08:45:12.348Z,86.66
2019-03-23T08:47:40.822Z,86.56
2019-03-23T08:50:09.365Z,86.75
2019-03-23T08:52:37.858Z,86.68
2019-03-23T08:55:07.094Z,86.23
2019-03-23T08:57:35.656Z,86.20
2019-03-23T09:00:05.799Z,86.50
2019-03-23T09:02:34.264Z,86.56
2019-03-23T09:05:02.735Z,86.47
2019-03-23T09:07:31.244Z,86.68
2019-03-23T09:10:01.014Z,86.67
2019-03-23T09:12:29.489Z,85.64
2019-03-23T09:14:57.992Z,84.68
2019-03-23T09:17:26.487Z,84.59
2019-03-23T09:19:54.916Z,83.74
2019-03-23T09:22:23.636Z,83.00
2019-03-23T09:24:56.989Z,82.78
2019-03-23T09:27:22.671Z,82.30
2019-03-23T09:29:51.160Z,81.77
2019-03-23T09:32:19.628Z,80.87
2019-03-23T09:34:48.125Z,80.47
2019-03-23T09:37:16.652Z,80.31
2019-03-23T09:39:46.861Z,80.62
2019-03-23T09:42:15.355Z,80.57
2019-03-23T09:44:43.858Z,80.36
2019-03-23T09:47:12.340Z,80.51
2019-03-23T09:49:40.825Z,80.25
2019-03-23T09:52:09.322Z,79.72
2019-03-23T09:54:37.803Z,78.89
2019-03-23T09:57:06.342Z,78.01
2019-03-23T09:59:34.839Z,77.78
2019-03-23T10:02:03.302Z,77.22
2019-03-23T10:04:31.810Z,76.88
2019-03-23T10:07:00.291Z,76.09
2019-03-23T10:09:28.758Z,75.99
2019-03-23T10:11:59.161Z,75.67
2019-03-23T10:14:27.490Z,75.17
2019-03-23T10:16:55.965Z,74.90
2019-03-23T10:19:24.503Z,74.52
2019-03-23T10:21:52.991Z,74.78
2019-03-23T10:24:21.468Z,74.39
2019-03-23T10:26:52.169Z,74.32
2019-03-23T10:29:20.474Z,73.58
2019-03-23T10:31:48.952Z,73.68
2019-03-23T10:34:17.460Z,73.60
2019-03-23T10:36:45.941Z,72.25
2019-03-23T10:39:14.417Z,72.19
2019-03-23T10:41:42.915Z,71.98
2019-03-23T10:44:11.380Z,71.31
2019-03-23T10:46:39.873Z,70.34
2019-03-23T10:49:08.394Z,70.17
2019-03-23T10:51:36.871Z,70.36
2019-03-23T10:54:05.340Z,70.79
2019-03-23T10:56:33.842Z,70.71
2019-03-23T10:59:02.350Z,70.23
2019-03-23T11:01:30.858Z,69.50
2019-03-23T11:03:59.358Z,69.84
2019-03-23T11:06:27.816Z,69.79
2019-03-23T11:08:56.288Z,69.14
2019-03-23T11:11:24.827Z,69.56
2019-03-23T11:13:53.314Z,68.80
2019-03-23T11:16:21.780Z,69.26
2019-03-23T11:18:50.349Z,68.71
2019-03-23T11:21:18.809Z,68.86
2019-03-23T11:23:47.280Z,69.37
2019-03-23T11:26:15.791Z,69.85
2019-03-23T11:28:44.403Z,69.34
2019-03-23T11:31:13.061Z,68.54
2019-03-23T11:33:41.548Z,68.86
2019-03-23T11:36:10.023Z,69.08
2019-03-23T11:38:38.483Z,68.50
2019-03-23T11:41:07.064Z,68.69
2019-03-23T11:43:35.525Z,68.43
2019-03-23T11:46:04.054Z,68.24
2019-03-23T11:48:32.567Z,67.95
2019-03-23T11:51:01.033Z,67.62
2019-03-23T11:53:29.498Z,67.66
2019-03-23T11:55:57.987Z,67.29
2019-03-23T11:58:26.476Z,67.27
2019-03-23T12:00:54.930Z,67.93
2019-03-23T12:03:23.457Z,67.88
2019-03-23T12:05:51.928Z,67.89
2019-03-23T12:08:20.415Z,67.36
2019-03-23T12:10:48.915Z,66.17
2019-03-23T12:13:17.426Z,65.82
2019-03-23T12:15:45.907Z,65.75
2019-03-23T12:18:14.396Z,65.97
2019-03-23T12:20:42.877Z,65.53
2019-03-23T12:23:11.351Z,66.06
2019-03-23T12:25:39.871Z,66.02
2019-03-23T12:28:08.331Z,64.02
2019-03-23T12:30:37.906Z,63.94
2019-03-23T12:33:06.419Z,64.20
2019-03-23T12:35:34.903Z,64.32
2019-03-23T12:38:03.387Z,64.29
2019-03-23T12:40:31.919Z,63.46
2019-03-23T12:43:00.393Z,62.33
2019-03-23T12:45:28.852Z,62.69
2019-03-23T12:47:57.399Z,62.12
2019-03-23T12:50:25.899Z,61.60
2019-03-23T12:52:54.368Z,60.13
2019-03-23T12:55:22.866Z,60.31
2019-03-23T12:57:51.366Z,60.80
2019-03-23T13:00:19.912Z,61.16
2019-03-23T13:02:48.464Z,60.42
2019-03-23T13:05:16.932Z,60.75
2019-03-23T13:07:45.395Z,60.86
2019-03-23T13:10:14.654Z,60.35
2019-03-23T13:12:43.127Z,60.46
2019-03-23T13:15:14.119Z,60.73
2019-03-23T13:17:42.663Z,59.89
2019-03-23T13:20:11.683Z,60.08
2019-03-23T13:22:40.303Z,60.37
2019-03-23T13:25:09.561Z,60.40
2019-03-23T13:27:38.037Z,61.10
2019-03-23T13:30:18.829Z,61.20
2019-03-23T13:32:48.595Z,61.17
2019-03-23T13:35:17.069Z,61.92
2019-03-23T13:37:45.663Z,61.97
2019-03-23T13:40:14.268Z,61.53
2019-03-23T13:42:42.817Z,61.57
2019-03-23T13:45:11.591Z,61.85
2019-03-23T13:47:40.530Z,62.14
2019-03-23T13:50:10.337Z,62.78
2019-03-23T13:52:39.422Z,62.99
2019-03-23T13:55:08.082Z,63.12
2019-03-23T13:57:36.580Z,63.38
2019-03-23T14:00:07.311Z,63.71
2019-03-23T14:02:35.779Z,63.77
2019-03-23T14:05:05.074Z,63.87
2019-03-23T14:07:33.582Z,64.20
2019-03-23T14:10:02.048Z,64.11
2019-03-23T14:12:30.524Z,63.86
2019-03-23T14:14:59.047Z,63.83
2019-03-23T14:17:27.523Z,63.66
2019-03-23T14:19:56.006Z,63.75
2019-03-23T14:22:24.507Z,63.75
2019-03-23T14:24:52.961Z,63.07
2019-03-23T14:27:21.441Z,63.03
2019-03-23T14:29:50.035Z,63.22
2019-03-23T14:32:18.498Z,63.48
2019-03-23T14:34:47.177Z,64.15
2019-03-23T14:37:15.692Z,64.56
2019-03-23T14:39:44.162Z,64.63
2019-03-23T14:42:12.627Z,64.79
2019-03-23T14:44:41.151Z,65.19
2019-03-23T14:47:09.615Z,65.65
2019-03-23T14:49:38.094Z,66.00
2019-03-23T14:52:06.604Z,66.18
2019-03-23T14:54:35.091Z,65.83
2019-03-23T14:57:03.577Z,65.91
2019-03-23T14:59:32.064Z,65.55
2019-03-23T15:02:00.543Z,65.89
2019-03-23T15:04:29.029Z,65.69
2019-03-23T15:06:57.552Z,65.35
2019-03-23T15:09:26.026Z,65.44
2019-03-23T15:11:54.509Z,65.66
2019-03-23T15:14:23.071Z,66.04
2019-03-23T15:16:51.526Z,65.99
2019-03-23T15:19:19.993Z,65.79
2019-03-23T15:21:48.499Z,65.85
2019-03-23T15:24:16.972Z,66.20
2019-03-23T15:26:45.449Z,66.40
2019-03-23T15:29:14.041Z,66.53
2019-03-23T15:31:42.501Z,66.46
2019-03-23T15:34:10.961Z,66.03
2019-03-23T15:36:40.741Z,66.08
2019-03-23T15:39:09.215Z,66.22
2019-03-23T15:41:37.675Z,66.35
2019-03-23T15:44:06.183Z,66.43
2019-03-23T15:46:34.655Z,66.19
2019-03-23T15:49:03.126Z,66.37
2019-03-23T15:51:31.637Z,66.66
2019-03-23T15:54:00.104Z,66.53
2019-03-23T15:56:28.577Z,65.88
2019-03-23T15:58:57.083Z,65.99
2019-03-23T16:01:25.545Z,65.15
2019-03-23T16:03:54.016Z,65.12
2019-03-23T16:06:22.684Z,64.68
2019-03-23T16:08:51.167Z,64.93
2019-03-23T16:11:19.708Z,64.85
2019-03-23T16:13:48.203Z,64.72
2019-03-23T16:16:16.676Z,64.74
2019-03-23T16:18:45.228Z,64.90
2019-03-23T16:21:13.731Z,64.67
2019-03-23T16:23:42.209Z,64.77
2019-03-23T16:26:10.687Z,65.04
2019-03-23T16:28:39.202Z,64.27
2019-03-23T16:31:07.683Z,64.12
2019-03-23T16:33:36.147Z,63.94
2019-03-23T16:36:04.636Z,64.34
2019-03-23T16:38:33.322Z,64.43
2019-03-23T16:41:01.783Z,64.49
2019-03-23T16:43:30.369Z,64.53
2019-03-23T16:45:58.847Z,64.53
2019-03-23T16:48:27.368Z,64.44
2019-03-23T16:50:55.847Z,64.45
2019-03-23T16:53:25.540Z,65.07
2019-03-23T16:55:53.984Z,65.31
2019-03-23T16:58:22.506Z,65.65
2019-03-23T17:00:50.991Z,65.43
2019-03-23T17:03:19.459Z,65.13
2019-03-23T17:05:47.980Z,65.28
2019-03-23T17:08:16.448Z,65.64
2019-03-23T17:10:45.005Z,65.78
2019-03-23T17:13:13.515Z,65.95
2019-03-23T17:15:42.016Z,66.10
2019-03-23T17:18:10.478Z,66.27
2019-03-23T17:20:38.977Z,66.58
2019-03-23T17:23:07.460Z,66.87
2019-03-23T17:25:37.651Z,67.16
2019-03-23T17:28:06.222Z,67.35
2019-03-23T17:30:34.688Z,67.66
2019-03-23T17:33:03.163Z,67.92
2019-03-23T17:35:31.693Z,68.18
2019-03-23T17:38:00.155Z,68.41
2019-03-23T17:40:29.667Z,68.64
2019-03-23T17:43:05.605Z,68.86
2019-03-23T17:45:31.363Z,69.10
2019-03-23T17:47:59.838Z,69.62
2019-03-23T17:50:28.701Z,69.64
2019-03-23T17:52:57.230Z,70.00
2019-03-23T17:55:25.839Z,70.22
2019-03-23T17:57:56.678Z,70.42
2019-03-23T18:00:31.893Z,70.62
2019-03-23T18:03:01.645Z,70.86
2019-03-23T18:05:31.489Z,71.07
2019-03-23T18:08:00.077Z,71.24
2019-03-23T18:10:29.820Z,71.57
2019-03-23T18:13:00.169Z,71.60
2019-03-23T18:15:30.322Z,71.70
2019-03-23T18:17:59.474Z,71.74
2019-03-23T18:20:30.682Z,71.64
2019-03-23T18:22:59.917Z,71.62
2019-03-23T18:25:28.564Z,71.68
2019-03-23T18:28:01.904Z,73.03
2019-03-23T18:30:38.940Z,72.61
2019-03-23T18:33:09.714Z,71.92
2019-03-23T18:35:40.070Z,71.47
2019-03-23T18:38:08.743Z,71.17
2019-03-23T18:40:37.347Z,70.97
2019-03-23T18:43:08.386Z,70.84
2019-03-23T18:45:37.199Z,70.75
2019-03-23T18:48:07.830Z,70.84
2019-03-23T18:50:39.040Z,70.91
2019-03-23T18:53:08.667Z,70.89
2019-03-23T18:55:40.224Z,70.95
2019-03-23T18:58:11.808Z,70.93
2019-03-23T19:00:44.896Z,70.91
2019-03-23T19:03:13.441Z,70.92
2019-03-23T19:05:41.980Z,70.93
2019-03-23T19:08:11.906Z,70.97
2019-03-23T19:10:40.542Z,71.01
2019-03-23T19:13:09.056Z,71.09
2019-03-23T19:15:37.630Z,71.31
2019-03-23T19:18:08.970Z,71.41
2019-03-23T19:20:37.515Z,71.53
2019-03-23T19:23:06.018Z,71.68
2019-03-23T19:25:34.645Z,71.84
2019-03-23T19:28:03.113Z,71.99
2019-03-23T19:30:31.619Z,72.18
2019-03-23T19:33:00.083Z,72.41
2019-03-23T19:35:28.582Z,72.66
2019-03-23T19:37:57.160Z,72.92
2019-03-23T19:40:25.637Z,73.17
2019-03-23T19:42:54.123Z,73.35
2019-03-23T19:45:22.898Z,73.48
2019-03-23T19:47:51.396Z,73.61
2019-03-23T19:50:19.968Z,73.71
2019-03-23T19:52:48.592Z,73.86
2019-03-23T19:55:17.650Z,73.95
2019-03-23T19:57:46.086Z,74.02
2019-03-23T20:00:14.842Z,73.81
2019-03-23T20:02:43.390Z,73.45
2019-03-23T20:05:11.904Z,73.20
2019-03-23T20:07:40.414Z,73.16
2019-03-23T20:10:09.920Z,73.20
2019-03-23T20:12:38.396Z,73.21
2019-03-23T20:15:08.257Z,73.01
2019-03-23T20:17:36.798Z,72.30
2019-03-23T20:20:07.662Z,71.78
2019-03-23T20:22:36.154Z,71.37
2019-03-23T20:25:06.271Z,70.95
2019-03-23T20:27:34.736Z,70.69
2019-03-23T20:30:04.198Z,70.50
2019-03-23T20:32:32.660Z,70.41
2019-03-23T20:35:01.105Z,70.44
2019-03-23T20:37:29.631Z,70.46
2019-03-23T20:39:58.083Z,70.40
2019-03-23T20:42:26.543Z,70.46
2019-03-23T20:44:55.030Z,70.45
2019-03-23T20:47:23.695Z,70.63
2019-03-23T20:49:53.523Z,70.72
2019-03-23T20:52:22.031Z,70.85
2019-03-23T20:54:50.493Z,71.00
2019-03-23T20:57:23.897Z,71.08
2019-03-23T20:59:49.230Z,71.13
2019-03-23T21:02:17.635Z,71.23
2019-03-23T21:04:46.106Z,71.33
2019-03-23T21:07:14.605Z,71.25
2019-03-23T21:09:43.068Z,71.21
2019-03-23T21:12:11.572Z,71.20
2019-03-23T21:14:40.074Z,71.18
2019-03-23T21:17:08.549Z,71.18
2019-03-23T21:19:37.009Z,71.26
2019-03-23T21:22:05.666Z,71.30
2019-03-23T21:24:34.112Z,71.24
2019-03-23T21:27:02.586Z,71.33
2019-03-23T21:29:31.073Z,71.40
2019-03-23T21:31:59.559Z,71.51
2019-03-23T21:34:28.044Z,71.60
2019-03-23T21:36:56.536Z,71.57
2019-03-23T21:39:25.001Z,71.50
2019-03-23T21:41:53.452Z,71.57
2019-03-23T21:44:30.706Z,71.61
2019-03-23T21:46:52.128Z,71.68
2019-03-23T21:49:20.855Z,71.69
2019-03-23T21:51:49.375Z,71.79
2019-03-23T21:54:17.845Z,71.84
2019-03-23T21:56:46.326Z,72.25
2019-03-23T21:59:14.813Z,72.06
2019-03-23T22:01:43.290Z,71.94
2019-03-23T22:04:11.749Z,71.85
2019-03-23T22:06:40.246Z,71.75
2019-03-23T22:09:08.735Z,71.72
2019-03-23T22:11:37.191Z,71.62
2019-03-23T22:14:05.787Z,71.40
2019-03-23T22:16:34.256Z,71.32
2019-03-23T22:19:02.731Z,71.19
2019-03-23T22:21:31.217Z,71.21
2019-03-23T22:23:59.686Z,71.39
2019-03-23T22:26:28.142Z,71.21
2019-03-23T22:28:56.645Z,71.31
2019-03-23T22:31:25.125Z,71.42
2019-03-23T22:33:53.580Z,71.48
2019-03-23T22:36:22.087Z,71.53
2019-03-23T22:38:50.546Z,71.59
2019-03-23T22:41:19.048Z,71.66
2019-03-23T22:43:47.536Z,71.71
2019-03-23T22:46:16.111Z,71.81
2019-03-23T22:48:44.603Z,71.98
2019-03-23T22:51:14.094Z,71.97
2019-03-23T22:53:42.566Z,72.04
2019-03-23T22:56:11.022Z,71.92
2019-03-23T22:58:39.510Z,71.77
2019-03-23T23:01:07.952Z,71.81
2019-03-23T23:03:36.498Z,71.81
2019-03-23T23:06:05.013Z,71.83
2019-03-23T23:08:33.478Z,71.90
2019-03-23T23:11:01.965Z,71.85
2019-03-23T23:13:30.459Z,71.85
2019-03-23T23:15:58.942Z,71.82
2019-03-23T23:18:27.397Z,71.92
2019-03-23T23:20:56.269Z,71.98
2019-03-23T23:23:24.725Z,72.10
2019-03-23T23:25:53.186Z,72.14
2019-03-23T23:28:21.686Z,72.26
2019-03-23T23:30:50.128Z,72.42
2019-03-23T23:33:18.590Z,72.52
2019-03-23T23:35:47.071Z,72.62
2019-03-23T23:38:15.522Z,72.66
2019-03-23T23:40:43.975Z,72.66
2019-03-23T23:43:12.506Z,72.82
2019-03-23T23:45:40.986Z,72.91
2019-03-23T23:48:09.452Z,72.91
2019-03-23T23:50:37.949Z,72.98
2019-03-23T23:53:07.374Z,73.00
2019-03-23T23:55:35.839Z,73.17
2019-03-23T23:58:04.410Z,73.31
